sensor_id;sensor_type;location;lat;lon;timestamp;noise_LAeq;noise_LA_min;noise_LA_max;noise_LA01;noise_LA95
69617;Laerm;58075;52.218;4.640;2022-10-16T00:00:02;48.55;41.17;53.95;;
69617;Laerm;58075;52.218;4.640;2022-10-16T00:00:13;43.38;39.08;52.77;;
69617;Laerm;58075;52.218;4.640;2022-10-16T00:00:23;42.17;39.54;52.26;;
69617;Laerm;58075;52.218;4.640;2022-10-16T00:00:34;44.15;39.15;50.73;;
69617;Laerm;58075;52.218;4.640;2022-10-16T00:00:45;46.65;41.53;53.77;;
69617;Laerm;58075;52.218;4.640;2022-10-16T00:00:55;48.68;42.69;63.23;;
69617;Laerm;58075;52.218;4.640;2022-10-16T00:01:09;45.39;40.98;51.48;;
69617;Laerm;58075;52.218;4.640;2022-10-16T00:01:22;46.05;39.56;57.03;;
69617;Laerm;58075;52.218;4.640;2022-10-16T00:01:33;42.15;39.00;50.19;;
69617;Laerm;58075;52.218;4.640;2022-10-16T00:01:43;42.93;38.67;52.94;;
69617;Laerm;58075;52.218;4.640;2022-10-16T00:01:53;45.97;38.72;55.50;;
69617;Laerm;58075;52.218;4.640;2022-10-16T00:02:04;45.68;37.80;54.87;;
69617;Laerm;58075;52.218;4.640;2022-10-16T00:02:14;42.83;36.66;49.94;;
69617;Laerm;58075;52.218;4.640;2022-10-16T00:02:24;42.32;36.82;50.12;;
69617;Laerm;58075;52.218;4.640;2022-10-16T00:02:34;46.96;38.55;56.33;;
69617;Laerm;58075;52.218;4.640;2022-10-16T00:02:45;45.28;39.42;59.09;;
69617;Laerm;58075;52.218;4.640;2022-10-16T00:02:55;44.11;39.10;53.62;;
69617;Laerm;58075;52.218;4.640;2022-10-16T00:03:05;40.38;37.43;46.67;;
69617;Laerm;58075;52.218;4.640;2022-10-16T00:03:16;41.51;38.45;47.63;;
69617;Laerm;58075;52.218;4.640;2022-10-16T00:03:26;44.16;38.22;51.79;;
69617;Laerm;58075;52.218;4.640;2022-10-16T00:03:37;46.03;41.94;51.14;;
69617;Laerm;58075;52.218;4.640;2022-10-16T00:03:48;46.25;41.71;51.02;;
69617;Laerm;58075;52.218;4.640;2022-10-16T00:03:59;41.63;37.31;50.01;;
69617;Laerm;58075;52.218;4.640;2022-10-16T00:04:09;41.18;38.16;48.66;;
69617;Laerm;58075;52.218;4.640;2022-10-16T00:04:20;40.07;38.20;42.68;;
69617;Laerm;58075;52.218;4.640;2022-10-16T00:04:30;42.32;38.18;49.41;;
69617;Laerm;58075;52.218;4.640;2022-10-16T00:04:41;41.14;37.59;46.45;;
69617;Laerm;58075;52.218;4.640;2022-10-16T00:04:51;42.29;38.53;50.10;;
69617;Laerm;58075;52.218;4.640;2022-10-16T00:05:01;42.50;38.23;54.05;;
69617;Laerm;58075;52.218;4.640;2022-10-16T00:05:12;44.47;38.98;52.14;;
69617;Laerm;58075;52.218;4.640;2022-10-16T00:05:22;44.16;38.73;52.92;;
69617;Laerm;58075;52.218;4.640;2022-10-16T00:05:32;43.09;39.49;52.40;;
69617;Laerm;58075;52.218;4.640;2022-10-16T00:05:43;45.75;40.40;56.33;;
69617;Laerm;58075;52.218;4.640;2022-10-16T00:05:54;43.76;40.05;48.01;;
69617;Laerm;58075;52.218;4.640;2022-10-16T00:06:08;45.14;39.67;50.83;;
69617;Laerm;58075;52.218;4.640;2022-10-16T00:06:20;42.94;39.60;48.09;;
69617;Laerm;58075;52.218;4.640;2022-10-16T00:06:31;49.90;38.69;63.05;;
69617;Laerm;58075;52.218;4.640;2022-10-16T00:06:41;43.37;39.34;48.01;;
69617;Laerm;58075;52.218;4.640;2022-10-16T00:06:52;42.29;39.64;47.26;;
69617;Laerm;58075;52.218;4.640;2022-10-16T00:07:02;43.41;40.39;50.40;;
69617;Laerm;58075;52.218;4.640;2022-10-16T00:07:12;43.38;40.21;51.06;;
69617;Laerm;58075;52.218;4.640;2022-10-16T00:07:22;45.57;39.68;54.14;;
69617;Laerm;58075;52.218;4.640;2022-10-16T00:07:33;44.26;38.43;63.00;;
69617;Laerm;58075;52.218;4.640;2022-10-16T00:07:43;39.07;36.95;43.97;;
69617;Laerm;58075;52.218;4.640;2022-10-16T00:07:53;41.09;38.12;55.00;;
69617;Laerm;58075;52.218;4.640;2022-10-16T00:08:04;40.95;38.06;48.81;;
69617;Laerm;58075;52.218;4.640;2022-10-16T00:08:14;40.25;37.50;46.68;;
69617;Laerm;58075;52.218;4.640;2022-10-16T00:08:24;40.93;37.18;50.18;;
69617;Laerm;58075;52.218;4.640;2022-10-16T00:08:34;40.75;38.32;46.38;;
69617;Laerm;58075;52.218;4.640;2022-10-16T00:08:45;40.14;37.92;42.56;;
69617;Laerm;58075;52.218;4.640;2022-10-16T00:08:56;40.53;37.99;46.52;;
69617;Laerm;58075;52.218;4.640;2022-10-16T00:09:07;40.18;38.31;43.84;;
69617;Laerm;58075;52.218;4.640;2022-10-16T00:09:17;41.53;37.73;45.26;;
69617;Laerm;58075;52.218;4.640;2022-10-16T00:09:27;43.43;40.53;49.59;;
69617;Laerm;58075;52.218;4.640;2022-10-16T00:09:38;42.62;39.59;47.16;;
69617;Laerm;58075;52.218;4.640;2022-10-16T00:09:48;41.81;39.16;45.21;;
69617;Laerm;58075;52.218;4.640;2022-10-16T00:09:58;40.96;39.27;43.35;;
69617;Laerm;58075;52.218;4.640;2022-10-16T00:10:09;40.50;38.17;42.91;;
69617;Laerm;58075;52.218;4.640;2022-10-16T00:10:19;42.62;38.21;54.67;;
69617;Laerm;58075;52.218;4.640;2022-10-16T00:10:29;43.95;38.93;53.86;;
69617;Laerm;58075;52.218;4.640;2022-10-16T00:10:40;43.54;39.57;53.18;;
69617;Laerm;58075;52.218;4.640;2022-10-16T00:10:50;42.45;39.63;47.17;;
69617;Laerm;58075;52.218;4.640;2022-10-16T00:11:05;40.52;37.53;44.12;;
69617;Laerm;58075;52.218;4.640;2022-10-16T00:11:17;39.59;37.45;42.29;;
69617;Laerm;58075;52.218;4.640;2022-10-16T00:11:29;40.54;38.05;49.64;;
69617;Laerm;58075;52.218;4.640;2022-10-16T00:11:40;40.36;37.13;50.81;;
69617;Laerm;58075;52.218;4.640;2022-10-16T00:11:50;40.54;37.56;46.17;;
69617;Laerm;58075;52.218;4.640;2022-10-16T00:12:01;39.98;37.09;46.14;;
69617;Laerm;58075;52.218;4.640;2022-10-16T00:12:11;40.95;38.15;44.19;;
69617;Laerm;58075;52.218;4.640;2022-10-16T00:12:21;40.49;37.77;47.46;;
69617;Laerm;58075;52.218;4.640;2022-10-16T00:12:32;41.76;38.29;51.66;;
69617;Laerm;58075;52.218;4.640;2022-10-16T00:12:42;39.88;37.58;44.06;;
69617;Laerm;58075;52.218;4.640;2022-10-16T00:12:52;39.98;36.76;44.92;;
69617;Laerm;58075;52.218;4.640;2022-10-16T00:13:03;41.10;37.07;46.37;;
69617;Laerm;58075;52.218;4.640;2022-10-16T00:13:13;43.43;38.59;50.71;;
69617;Laerm;58075;52.218;4.640;2022-10-16T00:13:24;44.44;39.80;48.78;;
69617;Laerm;58075;52.218;4.640;2022-10-16T00:13:35;46.12;39.32;58.08;;
69617;Laerm;58075;52.218;4.640;2022-10-16T00:13:47;41.77;38.32;50.63;;
69617;Laerm;58075;52.218;4.640;2022-10-16T00:13:58;44.78;36.54;60.69;;
69617;Laerm;58075;52.218;4.640;2022-10-16T00:14:10;39.10;36.63;44.82;;
69617;Laerm;58075;52.218;4.640;2022-10-16T00:14:21;39.90;37.14;44.33;;
69617;Laerm;58075;52.218;4.640;2022-10-16T00:14:31;39.57;37.44;41.83;;
69617;Laerm;58075;52.218;4.640;2022-10-16T00:14:41;43.90;37.65;52.26;;
69617;Laerm;58075;52.218;4.640;2022-10-16T00:14:53;40.67;36.45;47.71;;
69617;Laerm;58075;52.218;4.640;2022-10-16T00:15:04;44.05;38.54;50.84;;
69617;Laerm;58075;52.218;4.640;2022-10-16T00:15:14;40.05;37.22;45.30;;
69617;Laerm;58075;52.218;4.640;2022-10-16T00:15:25;38.91;37.08;42.07;;
69617;Laerm;58075;52.218;4.640;2022-10-16T00:15:36;41.18;35.29;52.34;;
69617;Laerm;58075;52.218;4.640;2022-10-16T00:15:46;40.09;36.17;44.50;;
69617;Laerm;58075;52.218;4.640;2022-10-16T00:15:57;39.94;36.64;44.33;;
69617;Laerm;58075;52.218;4.640;2022-10-16T00:16:08;40.84;37.89;49.63;;
69617;Laerm;58075;52.218;4.640;2022-10-16T00:16:19;42.39;37.20;55.15;;
69617;Laerm;58075;52.218;4.640;2022-10-16T00:16:29;47.34;38.45;57.20;;
69617;Laerm;58075;52.218;4.640;2022-10-16T00:16:39;40.49;38.46;42.63;;
69617;Laerm;58075;52.218;4.640;2022-10-16T00:16:50;47.74;39.34;58.99;;
69617;Laerm;58075;52.218;4.640;2022-10-16T00:17:00;46.24;38.12;57.15;;
69617;Laerm;58075;52.218;4.640;2022-10-16T00:17:10;45.84;39.42;54.26;;
69617;Laerm;58075;52.218;4.640;2022-10-16T00:17:21;40.07;36.99;42.97;;
69617;Laerm;58075;52.218;4.640;2022-10-16T00:17:31;44.56;38.23;57.60;;
69617;Laerm;58075;52.218;4.640;2022-10-16T00:17:42;40.64;37.76;49.17;;
69617;Laerm;58075;52.218;4.640;2022-10-16T00:17:52;41.99;38.47;49.74;;
69617;Laerm;58075;52.218;4.640;2022-10-16T00:18:03;45.07;39.89;62.30;;
69617;Laerm;58075;52.218;4.640;2022-10-16T00:18:13;43.66;40.75;46.65;;
69617;Laerm;58075;52.218;4.640;2022-10-16T00:18:25;42.63;39.73;49.98;;
69617;Laerm;58075;52.218;4.640;2022-10-16T00:18:35;41.00;38.36;45.36;;
69617;Laerm;58075;52.218;4.640;2022-10-16T00:18:47;41.12;38.26;48.42;;
69617;Laerm;58075;52.218;4.640;2022-10-16T00:18:57;43.18;38.11;51.98;;
69617;Laerm;58075;52.218;4.640;2022-10-16T00:19:09;43.47;40.05;46.67;;
69617;Laerm;58075;52.218;4.640;2022-10-16T00:19:20;42.89;39.78;49.97;;
69617;Laerm;58075;52.218;4.640;2022-10-16T00:19:30;41.38;39.37;46.23;;
69617;Laerm;58075;52.218;4.640;2022-10-16T00:19:41;42.29;39.47;47.18;;
69617;Laerm;58075;52.218;4.640;2022-10-16T00:19:51;41.35;39.03;45.81;;
69617;Laerm;58075;52.218;4.640;2022-10-16T00:20:01;40.19;38.67;42.52;;
69617;Laerm;58075;52.218;4.640;2022-10-16T00:20:11;38.71;35.80;41.80;;
69617;Laerm;58075;52.218;4.640;2022-10-16T00:20:22;40.19;36.52;52.24;;
69617;Laerm;58075;52.218;4.640;2022-10-16T00:20:35;42.62;36.67;54.01;;
69617;Laerm;58075;52.218;4.640;2022-10-16T00:20:46;40.72;38.11;45.22;;
69617;Laerm;58075;52.218;4.640;2022-10-16T00:21:04;43.97;38.11;55.76;;
69617;Laerm;58075;52.218;4.640;2022-10-16T00:21:16;41.08;37.32;51.33;;
69617;Laerm;58075;52.218;4.640;2022-10-16T00:21:28;39.26;37.21;41.53;;
69617;Laerm;58075;52.218;4.640;2022-10-16T00:21:39;38.78;36.72;41.02;;
69617;Laerm;58075;52.218;4.640;2022-10-16T00:21:49;39.63;37.75;41.10;;
69617;Laerm;58075;52.218;4.640;2022-10-16T00:22:00;40.10;37.49;43.58;;
69617;Laerm;58075;52.218;4.640;2022-10-16T00:22:10;40.84;38.38;43.56;;
69617;Laerm;58075;52.218;4.640;2022-10-16T00:22:20;42.38;39.54;50.70;;
69617;Laerm;58075;52.218;4.640;2022-10-16T00:22:31;42.60;38.90;49.90;;
69617;Laerm;58075;52.218;4.640;2022-10-16T00:22:41;47.21;39.15;56.53;;
69617;Laerm;58075;52.218;4.640;2022-10-16T00:22:51;42.89;38.46;48.15;;
69617;Laerm;58075;52.218;4.640;2022-10-16T00:23:02;39.01;36.90;41.61;;
69617;Laerm;58075;52.218;4.640;2022-10-16T00:23:13;45.68;37.91;59.78;;
69617;Laerm;58075;52.218;4.640;2022-10-16T00:23:23;39.85;37.49;42.89;;
69617;Laerm;58075;52.218;4.640;2022-10-16T00:23:33;40.17;36.57;51.41;;
69617;Laerm;58075;52.218;4.640;2022-10-16T00:23:44;39.51;36.86;47.01;;
69617;Laerm;58075;52.218;4.640;2022-10-16T00:23:59;40.77;37.61;46.30;;
69617;Laerm;58075;52.218;4.640;2022-10-16T00:24:10;41.67;38.11;50.33;;
69617;Laerm;58075;52.218;4.640;2022-10-16T00:24:20;41.85;38.92;47.00;;
69617;Laerm;58075;52.218;4.640;2022-10-16T00:24:30;42.67;38.36;50.07;;
69617;Laerm;58075;52.218;4.640;2022-10-16T00:24:40;42.84;38.95;52.26;;
69617;Laerm;58075;52.218;4.640;2022-10-16T00:24:51;41.53;39.55;44.51;;
69617;Laerm;58075;52.218;4.640;2022-10-16T00:25:01;42.72;39.26;46.78;;
69617;Laerm;58075;52.218;4.640;2022-10-16T00:25:11;48.77;39.24;60.53;;
69617;Laerm;58075;52.218;4.640;2022-10-16T00:25:22;42.76;39.36;48.76;;
69617;Laerm;58075;52.218;4.640;2022-10-16T00:25:32;41.97;39.57;47.01;;
69617;Laerm;58075;52.218;4.640;2022-10-16T00:25:42;42.70;39.50;51.51;;
69617;Laerm;58075;52.218;4.640;2022-10-16T00:25:57;40.99;38.92;42.88;;
69617;Laerm;58075;52.218;4.640;2022-10-16T00:26:15;41.23;37.84;51.05;;
69617;Laerm;58075;52.218;4.640;2022-10-16T00:26:26;41.97;38.85;44.61;;
69617;Laerm;58075;52.218;4.640;2022-10-16T00:26:37;45.41;40.17;56.66;;
69617;Laerm;58075;52.218;4.640;2022-10-16T00:26:49;44.08;39.83;50.94;;
69617;Laerm;58075;52.218;4.640;2022-10-16T00:26:59;43.90;41.25;50.19;;
69617;Laerm;58075;52.218;4.640;2022-10-16T00:27:10;44.50;39.45;57.61;;
69617;Laerm;58075;52.218;4.640;2022-10-16T00:27:20;42.68;38.96;50.43;;
69617;Laerm;58075;52.218;4.640;2022-10-16T00:27:30;42.66;38.97;46.80;;
69617;Laerm;58075;52.218;4.640;2022-10-16T00:27:41;43.16;38.72;50.30;;
69617;Laerm;58075;52.218;4.640;2022-10-16T00:27:51;42.89;40.02;46.99;;
69617;Laerm;58075;52.218;4.640;2022-10-16T00:28:01;44.22;38.70;54.01;;
69617;Laerm;58075;52.218;4.640;2022-10-16T00:28:11;43.45;39.76;52.81;;
69617;Laerm;58075;52.218;4.640;2022-10-16T00:28:22;42.49;39.01;48.30;;
69617;Laerm;58075;52.218;4.640;2022-10-16T00:28:33;42.30;38.04;52.22;;
69617;Laerm;58075;52.218;4.640;2022-10-16T00:28:46;40.52;38.20;44.77;;
69617;Laerm;58075;52.218;4.640;2022-10-16T00:28:57;40.30;37.43;44.81;;
69617;Laerm;58075;52.218;4.640;2022-10-16T00:29:07;41.96;39.43;44.75;;
69617;Laerm;58075;52.218;4.640;2022-10-16T00:29:17;41.10;39.14;43.84;;
69617;Laerm;58075;52.218;4.640;2022-10-16T00:29:28;39.81;37.71;42.07;;
69617;Laerm;58075;52.218;4.640;2022-10-16T00:29:38;40.69;38.08;47.48;;
69617;Laerm;58075;52.218;4.640;2022-10-16T00:29:52;43.10;39.64;52.55;;
69617;Laerm;58075;52.218;4.640;2022-10-16T00:30:02;42.38;36.83;54.19;;
69617;Laerm;58075;52.218;4.640;2022-10-16T00:30:13;45.91;38.45;60.94;;
69617;Laerm;58075;52.218;4.640;2022-10-16T00:30:23;46.05;38.40;62.96;;
69617;Laerm;58075;52.218;4.640;2022-10-16T00:30:33;43.67;38.98;57.01;;
69617;Laerm;58075;52.218;4.640;2022-10-16T00:30:47;44.39;39.03;61.10;;
69617;Laerm;58075;52.218;4.640;2022-10-16T00:30:57;42.05;37.85;53.89;;
69617;Laerm;58075;52.218;4.640;2022-10-16T00:31:09;41.03;36.70;50.55;;
69617;Laerm;58075;52.218;4.640;2022-10-16T00:31:20;40.58;37.07;48.29;;
69617;Laerm;58075;52.218;4.640;2022-10-16T00:31:31;44.32;37.26;61.17;;
69617;Laerm;58075;52.218;4.640;2022-10-16T00:31:41;39.24;37.41;41.88;;
69617;Laerm;58075;52.218;4.640;2022-10-16T00:31:52;39.83;37.63;42.44;;
69617;Laerm;58075;52.218;4.640;2022-10-16T00:32:02;41.45;38.23;48.19;;
69617;Laerm;58075;52.218;4.640;2022-10-16T00:32:12;41.62;38.49;45.28;;
69617;Laerm;58075;52.218;4.640;2022-10-16T00:32:22;40.36;37.04;58.48;;
69617;Laerm;58075;52.218;4.640;2022-10-16T00:32:33;40.28;36.84;56.68;;
69617;Laerm;58075;52.218;4.640;2022-10-16T00:32:43;42.42;39.26;46.01;;
69617;Laerm;58075;52.218;4.640;2022-10-16T00:32:53;47.66;39.51;58.68;;
69617;Laerm;58075;52.218;4.640;2022-10-16T00:33:04;44.23;38.99;54.50;;
69617;Laerm;58075;52.218;4.640;2022-10-16T00:33:14;45.24;39.84;53.34;;
69617;Laerm;58075;52.218;4.640;2022-10-16T00:33:24;43.61;39.43;53.02;;
69617;Laerm;58075;52.218;4.640;2022-10-16T00:33:35;45.70;38.40;59.10;;
69617;Laerm;58075;52.218;4.640;2022-10-16T00:33:46;40.53;38.19;47.21;;
69617;Laerm;58075;52.218;4.640;2022-10-16T00:33:56;40.12;37.34;45.27;;
69617;Laerm;58075;52.218;4.640;2022-10-16T00:34:06;40.96;37.87;47.27;;
69617;Laerm;58075;52.218;4.640;2022-10-16T00:34:17;40.44;38.01;45.33;;
69617;Laerm;58075;52.218;4.640;2022-10-16T00:34:27;40.73;38.29;44.70;;
69617;Laerm;58075;52.218;4.640;2022-10-16T00:34:37;41.44;38.98;46.35;;
69617;Laerm;58075;52.218;4.640;2022-10-16T00:34:48;42.65;39.43;49.49;;
69617;Laerm;58075;52.218;4.640;2022-10-16T00:34:58;41.12;37.93;48.30;;
69617;Laerm;58075;52.218;4.640;2022-10-16T00:35:09;40.17;38.52;42.71;;
69617;Laerm;58075;52.218;4.640;2022-10-16T00:35:19;41.08;38.56;43.75;;
69617;Laerm;58075;52.218;4.640;2022-10-16T00:35:30;40.67;37.38;42.75;;
69617;Laerm;58075;52.218;4.640;2022-10-16T00:35:40;39.05;37.04;40.79;;
69617;Laerm;58075;52.218;4.640;2022-10-16T00:35:50;40.54;38.22;43.30;;
69617;Laerm;58075;52.218;4.640;2022-10-16T00:36:01;48.63;38.40;58.73;;
69617;Laerm;58075;52.218;4.640;2022-10-16T00:36:13;46.72;38.10;60.78;;
69617;Laerm;58075;52.218;4.640;2022-10-16T00:36:25;41.56;36.91;51.47;;
69617;Laerm;58075;52.218;4.640;2022-10-16T00:36:35;43.27;37.46;52.69;;
69617;Laerm;58075;52.218;4.640;2022-10-16T00:36:45;43.85;37.84;54.26;;
69617;Laerm;58075;52.218;4.640;2022-10-16T00:36:56;42.41;38.14;51.00;;
69617;Laerm;58075;52.218;4.640;2022-10-16T00:37:06;42.16;38.53;49.59;;
69617;Laerm;58075;52.218;4.640;2022-10-16T00:37:16;46.18;39.22;59.31;;
69617;Laerm;58075;52.218;4.640;2022-10-16T00:37:27;43.07;38.71;56.85;;
69617;Laerm;58075;52.218;4.640;2022-10-16T00:37:37;41.11;38.84;47.90;;
69617;Laerm;58075;52.218;4.640;2022-10-16T00:37:47;45.28;38.26;59.69;;
69617;Laerm;58075;52.218;4.640;2022-10-16T00:37:57;41.77;38.68;49.66;;
69617;Laerm;58075;52.218;4.640;2022-10-16T00:38:08;44.74;40.33;52.29;;
69617;Laerm;58075;52.218;4.640;2022-10-16T00:38:18;41.34;37.97;50.09;;
69617;Laerm;58075;52.218;4.640;2022-10-16T00:38:28;51.69;39.83;62.84;;
69617;Laerm;58075;52.218;4.640;2022-10-16T00:38:39;43.96;39.36;50.58;;
69617;Laerm;58075;52.218;4.640;2022-10-16T00:38:50;51.64;40.81;63.44;;
69617;Laerm;58075;52.218;4.640;2022-10-16T00:39:02;47.53;39.32;63.46;;
69617;Laerm;58075;52.218;4.640;2022-10-16T00:39:13;42.96;39.25;53.94;;
69617;Laerm;58075;52.218;4.640;2022-10-16T00:39:23;41.14;38.63;46.24;;
69617;Laerm;58075;52.218;4.640;2022-10-16T00:39:34;44.16;40.23;54.02;;
69617;Laerm;58075;52.218;4.640;2022-10-16T00:39:45;45.41;39.87;55.91;;
69617;Laerm;58075;52.218;4.640;2022-10-16T00:39:55;41.94;38.83;47.84;;
69617;Laerm;58075;52.218;4.640;2022-10-16T00:40:06;43.43;39.45;51.20;;
69617;Laerm;58075;52.218;4.640;2022-10-16T00:40:16;42.84;39.90;54.69;;
69617;Laerm;58075;52.218;4.640;2022-10-16T00:40:27;45.03;39.83;57.95;;
69617;Laerm;58075;52.218;4.640;2022-10-16T00:40:38;45.38;39.70;60.57;;
69617;Laerm;58075;52.218;4.640;2022-10-16T00:40:48;42.52;39.41;46.64;;
69617;Laerm;58075;52.218;4.640;2022-10-16T00:40:59;44.66;40.69;56.53;;
69617;Laerm;58075;52.218;4.640;2022-10-16T00:41:11;43.57;40.82;50.18;;
69617;Laerm;58075;52.218;4.640;2022-10-16T00:41:22;43.71;41.27;47.10;;
69617;Laerm;58075;52.218;4.640;2022-10-16T00:41:33;43.74;40.29;49.40;;
69617;Laerm;58075;52.218;4.640;2022-10-16T00:41:43;45.70;39.22;57.93;;
69617;Laerm;58075;52.218;4.640;2022-10-16T00:41:53;44.58;40.11;53.86;;
69617;Laerm;58075;52.218;4.640;2022-10-16T00:42:04;41.29;39.21;44.71;;
69617;Laerm;58075;52.218;4.640;2022-10-16T00:42:15;39.22;36.48;44.42;;
69617;Laerm;58075;52.218;4.640;2022-10-16T00:42:25;43.63;37.77;55.67;;
69617;Laerm;58075;52.218;4.640;2022-10-16T00:42:36;42.77;40.45;53.71;;
69617;Laerm;58075;52.218;4.640;2022-10-16T00:42:46;48.09;40.77;58.75;;
69617;Laerm;58075;52.218;4.640;2022-10-16T00:42:57;49.03;39.75;60.86;;
69617;Laerm;58075;52.218;4.640;2022-10-16T00:43:14;44.90;38.68;57.78;;
69617;Laerm;58075;52.218;4.640;2022-10-16T00:43:43;44.89;39.13;59.24;;
69617;Laerm;58075;52.218;4.640;2022-10-16T00:43:58;49.94;40.22;60.82;;
69617;Laerm;58075;52.218;4.640;2022-10-16T00:44:44;45.43;40.05;60.08;;
69617;Laerm;58075;52.218;4.640;2022-10-16T00:44:56;42.23;39.16;47.25;;
69617;Laerm;58075;52.218;4.640;2022-10-16T00:45:08;41.87;38.88;53.44;;
69617;Laerm;58075;52.218;4.640;2022-10-16T00:45:18;41.07;38.88;46.26;;
69617;Laerm;58075;52.218;4.640;2022-10-16T00:45:29;39.48;37.03;43.72;;
69617;Laerm;58075;52.218;4.640;2022-10-16T00:45:40;42.06;37.41;55.33;;
69617;Laerm;58075;52.218;4.640;2022-10-16T00:45:50;40.08;37.22;51.07;;
69617;Laerm;58075;52.218;4.640;2022-10-16T00:46:01;39.44;36.74;42.33;;
69617;Laerm;58075;52.218;4.640;2022-10-16T00:46:28;38.78;37.20;41.27;;
69617;Laerm;58075;52.218;4.640;2022-10-16T00:46:40;41.82;37.41;51.72;;
69617;Laerm;58075;52.218;4.640;2022-10-16T00:46:51;46.32;38.29;57.59;;
69617;Laerm;58075;52.218;4.640;2022-10-16T00:47:02;41.14;37.62;52.99;;
69617;Laerm;58075;52.218;4.640;2022-10-16T00:47:17;39.23;36.62;42.73;;
69617;Laerm;58075;52.218;4.640;2022-10-16T00:47:30;39.61;36.67;48.71;;
69617;Laerm;58075;52.218;4.640;2022-10-16T00:47:44;44.34;37.90;56.36;;
69617;Laerm;58075;52.218;4.640;2022-10-16T00:47:57;39.79;37.31;47.20;;
69617;Laerm;58075;52.218;4.640;2022-10-16T00:48:10;43.19;39.25;52.88;;
69617;Laerm;58075;52.218;4.640;2022-10-16T00:48:21;43.49;38.62;52.54;;
69617;Laerm;58075;52.218;4.640;2022-10-16T00:48:31;43.65;39.50;47.98;;
69617;Laerm;58075;52.218;4.640;2022-10-16T00:48:42;40.99;38.01;47.89;;
69617;Laerm;58075;52.218;4.640;2022-10-16T00:49:15;40.68;36.71;51.75;;
69617;Laerm;58075;52.218;4.640;2022-10-16T00:49:26;43.77;38.75;53.83;;
69617;Laerm;58075;52.218;4.640;2022-10-16T00:49:36;41.04;38.06;51.38;;
69617;Laerm;58075;52.218;4.640;2022-10-16T00:49:47;43.28;39.46;51.95;;
69617;Laerm;58075;52.218;4.640;2022-10-16T00:50:00;43.90;38.77;56.10;;
69617;Laerm;58075;52.218;4.640;2022-10-16T00:50:28;40.51;37.69;50.57;;
69617;Laerm;58075;52.218;4.640;2022-10-16T00:50:40;39.55;37.40;42.30;;
69617;Laerm;58075;52.218;4.640;2022-10-16T00:50:53;40.27;37.59;50.47;;
69617;Laerm;58075;52.218;4.640;2022-10-16T00:51:04;39.27;36.96;45.76;;
69617;Laerm;58075;52.218;4.640;2022-10-16T00:51:16;40.57;36.91;46.44;;
69617;Laerm;58075;52.218;4.640;2022-10-16T00:51:33;40.30;37.81;44.34;;
69617;Laerm;58075;52.218;4.640;2022-10-16T00:51:47;41.43;37.91;50.20;;
69617;Laerm;58075;52.218;4.640;2022-10-16T00:51:57;42.36;38.42;51.08;;
69617;Laerm;58075;52.218;4.640;2022-10-16T00:52:08;41.56;39.61;44.49;;
69617;Laerm;58075;52.218;4.640;2022-10-16T00:52:18;42.65;39.55;47.16;;
69617;Laerm;58075;52.218;4.640;2022-10-16T00:52:29;42.67;38.86;48.46;;
69617;Laerm;58075;52.218;4.640;2022-10-16T00:52:41;40.47;37.15;48.36;;
69617;Laerm;58075;52.218;4.640;2022-10-16T00:52:53;39.50;36.85;43.94;;
69617;Laerm;58075;52.218;4.640;2022-10-16T00:53:04;38.95;36.80;41.11;;
69617;Laerm;58075;52.218;4.640;2022-10-16T00:53:14;40.56;38.29;44.49;;
69617;Laerm;58075;52.218;4.640;2022-10-16T00:53:26;45.36;38.99;60.25;;
69617;Laerm;58075;52.218;4.640;2022-10-16T00:53:37;41.03;38.43;44.22;;
69617;Laerm;58075;52.218;4.640;2022-10-16T00:53:47;40.39;37.88;44.74;;
69617;Laerm;58075;52.218;4.640;2022-10-16T00:53:58;41.16;39.04;44.20;;
69617;Laerm;58075;52.218;4.640;2022-10-16T00:54:13;42.50;38.84;48.61;;
69617;Laerm;58075;52.218;4.640;2022-10-16T00:54:26;42.69;38.23;57.94;;
69617;Laerm;58075;52.218;4.640;2022-10-16T00:54:37;42.91;38.87;56.02;;
69617;Laerm;58075;52.218;4.640;2022-10-16T00:54:47;45.68;37.90;58.93;;
69617;Laerm;58075;52.218;4.640;2022-10-16T00:54:59;48.05;38.02;59.25;;
69617;Laerm;58075;52.218;4.640;2022-10-16T00:55:10;41.51;36.89;50.68;;
69617;Laerm;58075;52.218;4.640;2022-10-16T00:55:20;42.87;36.62;55.65;;
69617;Laerm;58075;52.218;4.640;2022-10-16T00:55:31;42.49;37.85;54.46;;
69617;Laerm;58075;52.218;4.640;2022-10-16T00:55:41;39.72;37.91;41.78;;
69617;Laerm;58075;52.218;4.640;2022-10-16T00:55:52;40.67;37.28;47.53;;
69617;Laerm;58075;52.218;4.640;2022-10-16T00:56:03;41.35;39.55;44.65;;
69617;Laerm;58075;52.218;4.640;2022-10-16T00:56:13;41.23;38.24;47.13;;
69617;Laerm;58075;52.218;4.640;2022-10-16T00:56:24;42.91;39.08;47.29;;
69617;Laerm;58075;52.218;4.640;2022-10-16T00:56:34;47.69;42.94;55.14;;
69617;Laerm;58075;52.218;4.640;2022-10-16T00:56:44;47.64;44.57;50.73;;
69617;Laerm;58075;52.218;4.640;2022-10-16T00:56:56;44.31;40.31;48.21;;
69617;Laerm;58075;52.218;4.640;2022-10-16T00:57:08;48.95;39.06;65.58;;
69617;Laerm;58075;52.218;4.640;2022-10-16T00:57:18;43.00;39.49;54.62;;
69617;Laerm;58075;52.218;4.640;2022-10-16T00:57:29;44.65;38.72;58.76;;
69617;Laerm;58075;52.218;4.640;2022-10-16T00:57:39;41.10;39.10;44.26;;
69617;Laerm;58075;52.218;4.640;2022-10-16T00:57:50;47.45;39.65;60.64;;
69617;Laerm;58075;52.218;4.640;2022-10-16T00:58:01;42.03;38.10;50.93;;
69617;Laerm;58075;52.218;4.640;2022-10-16T00:58:11;39.94;37.42;42.21;;
69617;Laerm;58075;52.218;4.640;2022-10-16T00:58:22;40.55;37.36;49.58;;
69617;Laerm;58075;52.218;4.640;2022-10-16T00:58:32;39.67;37.37;43.49;;
69617;Laerm;58075;52.218;4.640;2022-10-16T00:58:43;41.19;38.75;44.10;;
69617;Laerm;58075;52.218;4.640;2022-10-16T00:58:53;42.28;39.67;53.22;;
69617;Laerm;58075;52.218;4.640;2022-10-16T00:59:04;42.49;39.34;46.07;;
69617;Laerm;58075;52.218;4.640;2022-10-16T00:59:20;43.06;39.18;50.31;;
69617;Laerm;58075;52.218;4.640;2022-10-16T00:59:34;40.21;36.90;46.27;;
69617;Laerm;58075;52.218;4.640;2022-10-16T00:59:45;40.31;36.29;47.19;;
69617;Laerm;58075;52.218;4.640;2022-10-16T00:59:55;44.67;35.42;60.12;;
69617;Laerm;58075;52.218;4.640;2022-10-16T01:00:07;39.43;36.90;43.89;;
69617;Laerm;58075;52.218;4.640;2022-10-16T01:00:19;38.41;36.22;40.44;;
69617;Laerm;58075;52.218;4.640;2022-10-16T01:00:30;42.49;37.06;53.36;;
69617;Laerm;58075;52.218;4.640;2022-10-16T01:00:41;41.78;37.75;50.53;;
69617;Laerm;58075;52.218;4.640;2022-10-16T01:00:51;39.99;37.93;45.14;;
69617;Laerm;58075;52.218;4.640;2022-10-16T01:01:01;40.60;37.63;48.04;;
69617;Laerm;58075;52.218;4.640;2022-10-16T01:01:12;44.86;38.26;60.10;;
69617;Laerm;58075;52.218;4.640;2022-10-16T01:01:22;39.15;36.34;45.74;;
69617;Laerm;58075;52.218;4.640;2022-10-16T01:01:32;46.92;34.92;61.90;;
69617;Laerm;58075;52.218;4.640;2022-10-16T01:01:43;38.70;36.01;48.49;;
69617;Laerm;58075;52.218;4.640;2022-10-16T01:01:53;38.31;35.32;40.18;;
69617;Laerm;58075;52.218;4.640;2022-10-16T01:02:04;40.17;36.85;47.33;;
69617;Laerm;58075;52.218;4.640;2022-10-16T01:02:15;40.01;37.29;43.03;;
69617;Laerm;58075;52.218;4.640;2022-10-16T01:02:25;40.60;37.73;43.28;;
69617;Laerm;58075;52.218;4.640;2022-10-16T01:02:36;40.22;37.41;46.57;;
69617;Laerm;58075;52.218;4.640;2022-10-16T01:02:53;41.08;38.30;48.07;;
69617;Laerm;58075;52.218;4.640;2022-10-16T01:03:21;45.43;36.75;62.42;;